Historique des stations

Station météo de Orçay

Altitude de la station : 145 m







Données météorologiques pour le 02/12/2021
Date
Heure
Températures Humidité Point de rosée Vitesse
du vent
Direction Rafales Windchill Pression Pluviométrie
Cumul
Date
Heure
Températures Humidité Point de rosée Vitesse
du vent
Direction Rafales Windchill Pression Pluviométrie
Cumul
02/12/2021 16:445.1 °C76 %1.1 °C5 km/hNNO31 km/h4.4 1013 hPa1.2 mm
02/12/2021 16:305.3 °C77 %1.7 °C5 km/hNNO18 km/h5.0 1013 hPa1.2 mm
02/12/2021 16:295.3 °C77 %1.7 °C6 km/hNO31 km/h4.4 1013 hPa1.2 mm
02/12/2021 16:155.0 °C79 %1.7 °C11 km/hONO23 km/h2.2 1013 hPa1.2 mm
02/12/2021 16:124.9 °C79 %1.7 °C5 km/hNNO31 km/h4.4 1013 hPa1.2 mm
02/12/2021 16:004.7 °C81 %1.7 °C6 km/hNNO11 km/h2.8 1013 hPa1.2 mm
02/12/2021 15:594.7 °C81 %1.7 °C2 km/hN31 km/h3.9 1013 hPa1.2 mm
02/12/2021 15:455.4 °C78 %1.7 °C5 km/hNE18 km/h5.0 1013 hPa1.2 mm
02/12/2021 15:445.5 °C77 %1.7 °C6 km/hENE31 km/h4.4 1013 hPa1.2 mm
02/12/2021 15:305.6 °C75 %1.7 °C5 km/hNNO29 km/h5.0 1013 hPa1.2 mm
02/12/2021 15:295.7 °C75 %1.7 °C11 km/hNO31 km/h2.8 1013 hPa1.2 mm
02/12/2021 15:155.6 °C76 %1.7 °C11 km/hONO24 km/h2.8 1012 hPa1.2 mm
02/12/2021 15:145.5 °C76 %1.7 °C13 km/hNNO29 km/h2.8 1012 hPa1.2 mm
02/12/2021 15:005.6 °C77 %1.7 °C13 km/hO29 km/h2.8 1012 hPa1.2 mm
02/12/2021 14:595.6 °C78 %2.2 °C16 km/hO29 km/h2.2 1012 hPa1.2 mm
02/12/2021 14:455.3 °C80 %2.2 °C19 km/hONO21 km/h1.7 1012 hPa1.2 mm
02/12/2021 14:445.3 °C80 %2.2 °C8 km/hNNO24 km/h3.3 1012 hPa1.2 mm
02/12/2021 14:305.4 °C79 %2.2 °C6 km/hONO16 km/h4.4 1012 hPa1.2 mm
02/12/2021 14:295.4 °C79 %2.2 °C6 km/hNO24 km/h4.4 1012 hPa1.2 mm
02/12/2021 14:155.4 °C79 %2.2 °C6 km/hONO18 km/h4.4 1012 hPa1.2 mm
02/12/2021 14:145.4 °C78 %1.7 °C13 km/hONO24 km/h2.8 1012 hPa1.2 mm
02/12/2021 14:005.4 °C79 %2.2 °C16 km/hONO18 km/h2.2 1013 hPa1.2 mm
02/12/2021 13:595.4 °C79 %2.2 °C14 km/hONO24 km/h2.2 1013 hPa1.2 mm
02/12/2021 13:455.2 °C81 %2.2 °C5 km/hNNO16 km/h4.4 1012 hPa1.2 mm
02/12/2021 13:445.2 °C80 %2.2 °C5 km/hNNO24 km/h4.4 1012 hPa1.2 mm
02/12/2021 13:305.2 °C81 %2.2 °C6 km/hNO18 km/h3.9 1013 hPa1.2 mm
02/12/2021 13:295.1 °C81 %2.2 °C8 km/hNNO24 km/h2.8 1013 hPa1.2 mm
02/12/2021 13:155.1 °C80 %1.7 °C5 km/hONO19 km/h4.4 1013 hPa1.2 mm
02/12/2021 13:145.1 °C81 %2.2 °C16 km/hONO24 km/h1.7 1013 hPa1.2 mm
02/12/2021 13:004.9 °C81 %2.2 °C13 km/hONO21 km/h1.7 1013 hPa1.2 mm
02/12/2021 12:594.9 °C81 %2.2 °C3 km/hN24 km/h4.4 1013 hPa1.2 mm
02/12/2021 12:454.8 °C82 %2.2 °C3 km/hNNO23 km/h4.4 1013 hPa1.2 mm
02/12/2021 12:444.8 °C83 %2.2 °C13 km/hONO24 km/h1.7 1013 hPa1.2 mm
02/12/2021 12:304.8 °C83 %2.2 °C8 km/hNO24 km/h2.8 1013 hPa1.2 mm
02/12/2021 12:294.8 °C83 %2.2 °C5 km/hNO24 km/h4.4 1013 hPa1.2 mm
02/12/2021 12:154.7 °C83 %2.2 °C8 km/hNNO21 km/h2.2 1013 hPa1.2 mm
02/12/2021 12:144.7 °C83 %2.2 °C6 km/hNNO24 km/h2.8 1013 hPa1.2 mm
02/12/2021 12:004.6 °C83 %2.2 °C6 km/hONO18 km/h2.8 1013 hPa1 mm
02/12/2021 11:594.6 °C83 %2.2 °C3 km/hN24 km/h3.3 1013 hPa1 mm
02/12/2021 11:454.5 °C84 %2.2 °C10 km/hNNO18 km/h2.2 1013 hPa1 mm
02/12/2021 11:444.5 °C84 %2.2 °C6 km/hN24 km/h2.8 1013 hPa1 mm
02/12/2021 11:314.4 °C85 %2.2 °C6 km/hONO19 km/h2.8 1013 hPa1 mm
02/12/2021 11:294.4 °C85 %2.2 °C13 km/hN24 km/h1.7 1013 hPa1 mm
02/12/2021 11:154.3 °C87 %2.2 °C5 km/hNNO18 km/h3.3 1013 hPa1 mm
02/12/2021 11:144.3 °C88 %2.8 °C3 km/hNNO24 km/h3.3 1013 hPa1 mm
02/12/2021 11:003.8 °C89 %2.2 °C5 km/hNNO18 km/h2.8 1013 hPa1 mm
02/12/2021 10:593.8 °C89 %2.2 °C8 km/hNNO24 km/h1.7 1013 hPa1 mm
02/12/2021 10:453.6 °C90 %2.2 °C8 km/hN24 km/h1.1 1013 hPa1 mm
02/12/2021 10:443.5 °C90 %2.2 °C5 km/hN24 km/h2.2 1013 hPa1 mm
02/12/2021 10:303.4 °C91 %2.2 °C10 km/hNE21 km/h0.6 1012 hPa1 mm
02/12/2021 10:293.4 °C91 %2.2 °C8 km/hN24 km/h1.1 1012 hPa1 mm
02/12/2021 10:153.3 °C92 %2.2 °C18 km/hNO19 km/h-0.6 1012 hPa1 mm
02/12/2021 10:143.2 °C92 %2.2 °C6 km/hNO24 km/h1.7 1012 hPa1 mm
02/12/2021 10:003.1 °C92 %2.2 °C8 km/hONO14 km/h1.1 1012 hPa1 mm
02/12/2021 09:593.1 °C92 %1.7 °C13 km/hN24 km/h0.6 1012 hPa1 mm
02/12/2021 09:453.0 °C92 %1.7 °C8 km/hONO13 km/h0.6 1011 hPa1 mm
02/12/2021 09:443.0 °C92 %1.7 °C8 km/hONO24 km/h0.6 1011 hPa1 mm
02/12/2021 09:302.9 °C92 %1.7 °C3 km/hNO14 km/h1.7 1011 hPa1 mm
02/12/2021 09:292.9 °C92 %1.7 °C3 km/hN24 km/h1.7 1011 hPa1 mm
02/12/2021 09:152.9 °C92 %1.7 °C6 km/hNNO14 km/h1.1 1011 hPa1 mm
02/12/2021 09:142.9 °C92 %1.7 °C10 km/hNO24 km/h0.0 1011 hPa1 mm
02/12/2021 09:013.1 °C92 %1.7 °C6 km/hNNO16 km/h1.7 1011 hPa1 mm
02/12/2021 08:593.1 °C92 %2.2 °C8 km/hNO24 km/h1.1 1011 hPa1 mm
02/12/2021 08:463.4 °C93 %2.2 °C3 km/hN14 km/h2.2 1010 hPa1 mm
02/12/2021 08:443.4 °C93 %2.2 °C3 km/hN24 km/h2.2 1010 hPa1 mm
02/12/2021 08:313.8 °C93 %2.8 °C2 km/hNNO24 km/h3.3 1010 hPa1 mm
02/12/2021 08:303.8 °C93 %2.8 °C6 km/hNNO24 km/h2.2 1010 hPa1 mm
02/12/2021 08:154.0 °C94 %3.3 °C6 km/hN16 km/h2.2 1010 hPa1 mm
02/12/2021 08:144.1 °C94 %3.3 °C10 km/hN21 km/h1.1 1010 hPa1 mm
02/12/2021 08:004.1 °C94 %3.3 °C3 km/hN13 km/h2.8 1010 hPa1 mm
02/12/2021 07:594.2 °C94 %3.3 °C6 km/hNO21 km/h2.8 1010 hPa1 mm
02/12/2021 07:454.2 °C94 %3.3 °C2 km/hNO14 km/h3.9 1009 hPa1 mm
02/12/2021 07:444.2 °C94 %3.3 °C5 km/hNNO21 km/h3.3 1009 hPa1 mm
02/12/2021 07:304.2 °C94 %3.3 °C5 km/hNO13 km/h3.3 1009 hPa1 mm
02/12/2021 07:294.2 °C94 %3.3 °C6 km/hNNE21 km/h2.8 1009 hPa1 mm
02/12/2021 07:154.2 °C94 %3.3 °C5 km/hN16 km/h3.3 1009 hPa1 mm
02/12/2021 07:144.2 °C94 %3.3 °C14 km/hNNO21 km/h1.1 1009 hPa1 mm
02/12/2021 07:004.2 °C94 %3.3 °C10 km/hN14 km/h2.2 1009 hPa0.8 mm
02/12/2021 06:594.2 °C94 %3.3 °C11 km/hNO21 km/h1.7 1009 hPa0.8 mm
02/12/2021 06:454.2 °C94 %3.3 °C2 km/hNO14 km/h3.9 1008 hPa0.8 mm
02/12/2021 06:444.2 °C94 %3.3 °C2 km/hNO21 km/h3.9 1008 hPa0.8 mm
02/12/2021 06:304.2 °C94 %3.3 °C8 km/hNO13 km/h2.2 1008 hPa0.8 mm
02/12/2021 06:294.2 °C94 %3.3 °C10 km/hNO21 km/h2.2 1008 hPa0.8 mm
02/12/2021 06:154.2 °C94 %3.3 °C13 km/hN16 km/h1.7 1008 hPa0.8 mm
02/12/2021 06:144.2 °C94 %3.3 °C3 km/hNO19 km/h3.3 1008 hPa0.8 mm
02/12/2021 06:004.2 °C94 %3.3 °C14 km/hONO19 km/h1.1 1008 hPa0.6 mm
02/12/2021 05:594.2 °C94 %3.3 °C8 km/hNO16 km/h2.2 1008 hPa0.6 mm
02/12/2021 05:454.3 °C93 %3.3 °C8 km/hONO11 km/h2.2 1008 hPa0.2 mm
02/12/2021 05:444.2 °C93 %3.3 °C6 km/hONO16 km/h2.8 1008 hPa0.2 mm
02/12/2021 05:304.3 °C93 %3.3 °C8 km/hNO14 km/h2.2 1008 hPa-
02/12/2021 05:294.3 °C93 %3.3 °C13 km/hONO16 km/h1.7 1008 hPa-
02/12/2021 05:154.3 °C93 %3.3 °C6 km/hONO13 km/h2.8 1008 hPa-
02/12/2021 05:144.3 °C93 %3.3 °C6 km/hO16 km/h2.8 1008 hPa-
02/12/2021 05:004.4 °C93 %3.3 °C6 km/hONO14 km/h2.8 1008 hPa-
02/12/2021 04:594.4 °C93 %3.3 °C8 km/hONO16 km/h2.2 1008 hPa-
02/12/2021 04:454.6 °C93 %3.3 °C5 km/hONO13 km/h3.3 1008 hPa-
02/12/2021 04:444.6 °C93 %3.3 °C5 km/hNO16 km/h3.3 1008 hPa-
02/12/2021 04:304.6 °C93 %3.9 °C6 km/hNO14 km/h2.8 1008 hPa-
02/12/2021 04:294.6 °C93 %3.9 °C3 km/hONO16 km/h3.3 1008 hPa-
02/12/2021 04:154.7 °C93 %3.9 °C6 km/hNNO13 km/h2.8 1008 hPa-
02/12/2021 04:144.6 °C93 %3.9 °C8 km/hONO16 km/h2.2 1008 hPa-
02/12/2021 04:004.7 °C93 %3.9 °C5 km/hONO16 km/h4.4 1008 hPa-
02/12/2021 03:594.7 °C93 %3.9 °C6 km/hNO16 km/h2.8 1008 hPa-
02/12/2021 03:454.6 °C94 %3.9 °C6 km/hONO14 km/h2.8 1008 hPa-
02/12/2021 03:444.6 °C94 %3.9 °C6 km/hONO13 km/h2.8 1007 hPa-
02/12/2021 03:304.4 °C93 %3.3 °C5 km/hNO13 km/h3.3 1007 hPa-
02/12/2021 03:294.4 °C93 %3.3 °C11 km/hONO13 km/h1.7 1007 hPa-
02/12/2021 03:154.3 °C93 %3.3 °C10 km/hO11 km/h2.2 1007 hPa-
02/12/2021 03:134.3 °C93 %3.3 °C5 km/hO11 km/h3.3 1007 hPa-
02/12/2021 03:004.3 °C93 %3.3 °C6 km/hOSO10 km/h2.8 1007 hPa-
02/12/2021 02:594.3 °C93 %3.3 °C2 km/hOSO11 km/h3.9 1007 hPa-
02/12/2021 02:454.3 °C93 %3.3 °C6 km/hOSO8 km/h2.8 1007 hPa-
02/12/2021 02:444.3 °C93 %3.3 °C6 km/hSO11 km/h2.8 1007 hPa-
02/12/2021 02:304.4 °C93 %3.3 °C5 km/hOSO8 km/h3.3 1007 hPa-
02/12/2021 02:294.3 °C93 %3.3 °C5 km/hO11 km/h3.3 1007 hPa-
02/12/2021 02:154.4 °C92 %3.3 °C3 km/hSO6 km/h3.3 1007 hPa-
02/12/2021 02:144.4 °C92 %3.3 °C5 km/hSO11 km/h3.3 1007 hPa-
02/12/2021 02:004.5 °C92 %3.3 °C3 km/hOSO8 km/h3.3 1007 hPa-
02/12/2021 01:594.4 °C92 %3.3 °C2 km/hOSO11 km/h3.9 1007 hPa-
02/12/2021 01:464.4 °C92 %3.3 °C6 km/hSO10 km/h2.8 1007 hPa-
02/12/2021 01:444.4 °C92 %3.3 °C5 km/hOSO11 km/h3.3 1007 hPa-
02/12/2021 01:324.3 °C92 %3.3 °C2 km/hSO6 km/h3.9 1007 hPa-
02/12/2021 01:294.3 °C91 %2.8 °C2 km/hSO11 km/h3.9 1007 hPa-
02/12/2021 01:184.4 °C91 %3.3 °C5 km/hOSO8 km/h3.3 1007 hPa-
02/12/2021 01:154.4 °C91 %3.3 °C2 km/hOSO11 km/h3.9 1007 hPa-
02/12/2021 01:044.6 °C90 %3.3 °C5 km/hSO6 km/h3.3 1007 hPa-
02/12/2021 01:014.6 °C90 %3.3 °C5 km/hSO11 km/h3.3 1007 hPa-
02/12/2021 00:474.8 °C90 %3.3 °C3 km/hSSO8 km/h4.4 1007 hPa-
02/12/2021 00:444.8 °C90 %3.3 °C3 km/hSSO11 km/h4.4 1007 hPa-
02/12/2021 00:305.1 °C90 %3.3 °C3 km/hOSO11 km/h4.4 1007 hPa-
02/12/2021 00:165.3 °C89 %3.9 °C3 km/hOSO11 km/h5.0 1007 hPa-
02/12/2021 00:155.3 °C89 %3.9 °C5 km/hSO11 km/h5.0 1007 hPa-
02/12/2021 00:005.5 °C89 %3.9 °C6 km/hOSO37 km/h4.4 1007 hPa2.4 mm


Minima :

Température : 2.9 °C
Humidité : 75 %
Point de rosée : 1.1 °C
Vent moyen : 2 km/h
Windchill : -0.6
Pression atm. : 1007 hPa
Maxima :

Température : 5.7 °C
Humidité : 94 %
Point de rosée : 3.9 °C
Vent moyen : 19 km/h
Windchill : 5.0
Pression atm. : 1013 hPa
Rafales max : 37 km/h
Cumul de pluie sur 24H : 2.4 mm

Orçay est une commune du département Loir-et-Cher (41).
La station météorologique du réseau de l'association la plus proche de Orçay est celle de Vierzon



Icône Facebook Association Météo Centre Icône Twitter Association Météo Centre Icône Chaîne Youtube Association Météo Centre Icône contact Association Météo Centre Icône Insta Association Météo Centre